createdAt,value
2022-07-30T00:02:06.169Z,100.00
2022-07-30T00:04:38.804Z,100.00
2022-07-30T00:07:08.740Z,100.00
2022-07-30T00:09:37.013Z,100.00
2022-07-30T00:12:05.378Z,100.00
2022-07-30T00:14:35.304Z,100.00
2022-07-30T00:17:04.075Z,100.00
2022-07-30T00:19:33.006Z,100.00
2022-07-30T00:22:02.414Z,100.00
2022-07-30T00:24:30.556Z,100.00
2022-07-30T00:26:58.956Z,100.00
2022-07-30T00:29:27.987Z,100.00
2022-07-30T00:31:56.370Z,100.00
2022-07-30T00:34:24.767Z,100.00
2022-07-30T00:36:52.775Z,100.00
2022-07-30T00:39:24.587Z,100.00
2022-07-30T00:41:59.005Z,100.00
2022-07-30T00:44:27.343Z,100.00
2022-07-30T00:46:56.107Z,100.00
2022-07-30T00:49:26.760Z,100.00
2022-07-30T00:51:55.017Z,100.00
2022-07-30T00:54:24.671Z,100.00
2022-07-30T00:56:53.548Z,100.00
2022-07-30T00:59:22.923Z,100.00
2022-07-30T01:01:51.423Z,100.00
2022-07-30T01:04:19.388Z,100.00
2022-07-30T01:06:47.760Z,100.00
2022-07-30T01:10:20.049Z,100.00
2022-07-30T01:12:49.141Z,100.00
2022-07-30T01:15:17.849Z,100.00
2022-07-30T01:17:46.127Z,100.00
2022-07-30T01:20:26.028Z,100.00
2022-07-30T01:23:00.398Z,100.00
2022-07-30T01:26:01.698Z,100.00
2022-07-30T01:28:33.400Z,100.00
2022-07-30T01:31:02.796Z,100.00
2022-07-30T01:33:31.374Z,100.00
2022-07-30T01:36:05.489Z,100.00
2022-07-30T01:38:34.757Z,100.00
2022-07-30T01:41:07.873Z,100.00
2022-07-30T01:43:36.498Z,100.00
2022-07-30T01:46:04.748Z,100.00
2022-07-30T01:48:33.384Z,100.00
2022-07-30T01:51:05.133Z,100.00
2022-07-30T01:53:34.269Z,100.00
2022-07-30T01:56:03.773Z,100.00
2022-07-30T01:58:39.559Z,100.00
2022-07-30T02:01:08.690Z,100.00
2022-07-30T02:03:37.390Z,100.00
2022-07-30T02:06:11.083Z,100.00
2022-07-30T02:08:41.949Z,100.00
2022-07-30T02:11:12.453Z,100.00
2022-07-30T02:13:47.416Z,100.00
2022-07-30T02:16:18.306Z,100.00
2022-07-30T02:18:52.379Z,100.00
2022-07-30T02:21:22.025Z,100.00
2022-07-30T02:23:50.670Z,100.00
2022-07-30T02:26:20.333Z,100.00
2022-07-30T02:28:55.621Z,100.00
2022-07-30T02:31:26.400Z,100.00
2022-07-30T02:33:58.712Z,100.00
2022-07-30T02:36:27.392Z,100.00
2022-07-30T02:38:56.318Z,100.00
2022-07-30T02:41:26.190Z,100.00
2022-07-30T02:43:56.580Z,100.00
2022-07-30T02:46:25.840Z,100.00
2022-07-30T02:48:55.711Z,100.00
2022-07-30T02:51:24.329Z,100.00
2022-07-30T02:53:53.169Z,100.00
2022-07-30T02:56:23.005Z,100.00
2022-07-30T02:58:51.683Z,100.00
2022-07-30T03:01:23.353Z,100.00
2022-07-30T03:03:53.145Z,100.00
2022-07-30T03:06:22.308Z,100.00
2022-07-30T03:08:50.870Z,100.00
2022-07-30T03:12:20.028Z,100.00
2022-07-30T03:14:47.628Z,100.00
2022-07-30T03:17:18.119Z,100.00
2022-07-30T03:19:46.769Z,100.00
2022-07-30T03:23:15.929Z,100.00
2022-07-30T03:25:47.401Z,100.00
2022-07-30T03:28:17.281Z,100.00
2022-07-30T03:30:45.217Z,100.00
2022-07-30T03:33:15.934Z,100.00
2022-07-30T03:35:44.296Z,100.00
2022-07-30T03:38:13.655Z,100.00
2022-07-30T03:40:42.750Z,100.00
2022-07-30T03:43:32.551Z,100.00
2022-07-30T03:46:04.264Z,100.00
2022-07-30T03:48:35.367Z,100.00
2022-07-30T03:51:04.863Z,100.00
2022-07-30T03:53:34.435Z,100.00
2022-07-30T03:56:02.430Z,100.00
2022-07-30T03:58:32.317Z,100.00
2022-07-30T04:01:04.212Z,100.00
2022-07-30T04:03:34.907Z,100.00
2022-07-30T04:06:02.863Z,100.00
2022-07-30T04:08:30.793Z,100.00
2022-07-30T04:10:58.817Z,100.00
2022-07-30T04:13:26.688Z,100.00
2022-07-30T04:16:38.793Z,100.00
2022-07-30T04:18:52.881Z,100.00
2022-07-30T04:21:22.145Z,100.00
2022-07-30T04:24:04.793Z,100.00
2022-07-30T04:26:35.949Z,100.00
2022-07-30T04:29:06.425Z,100.00
2022-07-30T04:31:40.450Z,100.00
2022-07-30T04:34:09.971Z,100.00
2022-07-30T04:36:38.573Z,100.00
2022-07-30T04:42:47.052Z,100.00
2022-07-30T04:45:15.463Z,100.00
2022-07-30T04:47:43.211Z,100.00
2022-07-30T04:50:14.132Z,100.00
2022-07-30T04:52:43.102Z,100.00
2022-07-30T04:55:12.521Z,100.00
2022-07-30T04:57:43.743Z,100.00
2022-07-30T05:00:12.822Z,100.00
2022-07-30T05:02:41.951Z,100.00
2022-07-30T05:05:13.665Z,100.00
2022-07-30T05:07:43.614Z,100.00
2022-07-30T05:10:12.498Z,100.00
2022-07-30T05:12:40.457Z,100.00
2022-07-30T05:15:10.745Z,100.00
2022-07-30T05:17:39.205Z,100.00
2022-07-30T05:20:09.834Z,100.00
2022-07-30T05:22:39.998Z,100.00
2022-07-30T05:25:19.813Z,100.00
2022-07-30T05:28:57.027Z,100.00
2022-07-30T05:31:25.207Z,100.00
2022-07-30T05:33:53.286Z,100.00
2022-07-30T05:36:21.453Z,100.00
2022-07-30T05:38:50.668Z,100.00
2022-07-30T05:41:30.757Z,100.00
2022-07-30T05:44:02.237Z,100.00
2022-07-30T05:46:31.492Z,100.00
2022-07-30T05:49:00.107Z,100.00
2022-07-30T05:51:29.379Z,100.00
2022-07-30T05:54:00.705Z,100.00
2022-07-30T05:56:29.756Z,100.00
2022-07-30T05:58:58.576Z,100.00
2022-07-30T06:01:27.867Z,100.00
2022-07-30T06:03:55.894Z,100.00
2022-07-30T06:06:23.609Z,100.00
2022-07-30T06:08:52.286Z,100.00
2022-07-30T06:11:25.025Z,100.00
2022-07-30T06:13:53.777Z,100.00
2022-07-30T06:16:21.729Z,100.00
2022-07-30T06:18:50.384Z,99.98
2022-07-30T06:21:18.445Z,100.00
2022-07-30T06:23:46.218Z,100.00
2022-07-30T06:26:15.093Z,98.46
2022-07-30T06:28:44.584Z,99.58
2022-07-30T06:31:12.418Z,98.03
2022-07-30T06:33:40.476Z,98.40
2022-07-30T06:36:08.695Z,97.59
2022-07-30T06:38:42.982Z,97.73
2022-07-30T06:41:11.627Z,97.97
2022-07-30T06:43:40.027Z,98.54
2022-07-30T06:46:09.114Z,97.31
2022-07-30T06:48:37.742Z,96.66
2022-07-30T06:51:05.721Z,95.46
2022-07-30T06:53:33.577Z,95.33
2022-07-30T06:56:09.542Z,95.03
2022-07-30T06:58:37.296Z,94.17
2022-07-30T07:01:05.259Z,93.34
2022-07-30T07:03:40.973Z,94.37
2022-07-30T07:06:09.098Z,94.40
2022-07-30T07:08:38.443Z,93.60
2022-07-30T07:11:07.271Z,94.23
2022-07-30T07:13:36.140Z,93.57
2022-07-30T07:16:06.394Z,93.85
2022-07-30T07:18:35.067Z,93.66
2022-07-30T07:21:08.146Z,93.67
2022-07-30T07:23:41.384Z,93.53
2022-07-30T07:26:12.811Z,93.47
2022-07-30T07:28:41.730Z,92.32
2022-07-30T07:31:11.477Z,92.24
2022-07-30T07:33:59.276Z,93.17
2022-07-30T07:36:28.618Z,92.11
2022-07-30T07:38:56.261Z,92.69
2022-07-30T07:41:24.396Z,91.91
2022-07-30T07:44:57.126Z,91.64
2022-07-30T07:47:27.244Z,92.59
2022-07-30T07:49:56.397Z,92.15
2022-07-30T07:52:28.348Z,92.19
2022-07-30T07:54:56.014Z,91.35
2022-07-30T07:57:26.335Z,91.62
2022-07-30T07:59:55.459Z,92.21
2022-07-30T08:02:23.258Z,91.33
2022-07-30T08:04:51.943Z,92.80
2022-07-30T08:07:19.802Z,93.88
2022-07-30T08:09:49.125Z,92.68
2022-07-30T08:12:16.783Z,93.91
2022-07-30T08:14:44.666Z,93.46
2022-07-30T08:17:13.345Z,92.84
2022-07-30T08:19:42.331Z,91.98
2022-07-30T08:22:10.789Z,92.56
2022-07-30T08:24:38.543Z,92.69
2022-07-30T08:27:07.843Z,90.89
2022-07-30T08:29:35.779Z,90.81
2022-07-30T08:32:04.947Z,87.80
2022-07-30T08:34:33.847Z,89.62
2022-07-30T08:37:02.971Z,90.14
2022-07-30T08:39:31.462Z,88.61
2022-07-30T08:42:01.681Z,90.53
2022-07-30T08:44:33.150Z,88.25
2022-07-30T08:47:01.280Z,88.15
2022-07-30T08:49:29.408Z,87.84
2022-07-30T08:51:57.622Z,87.89
2022-07-30T08:54:26.510Z,88.66
2022-07-30T08:56:55.785Z,86.12
2022-07-30T08:59:25.690Z,86.70
2022-07-30T09:02:14.776Z,87.17
2022-07-30T09:04:42.738Z,86.82
2022-07-30T09:07:10.444Z,85.41
2022-07-30T09:09:40.856Z,86.50
2022-07-30T09:12:37.247Z,86.21
2022-07-30T09:15:08.738Z,85.30
2022-07-30T09:17:52.165Z,85.36
2022-07-30T09:20:21.212Z,84.76
2022-07-30T09:22:52.044Z,85.93
2022-07-30T09:25:35.747Z,83.83
2022-07-30T09:28:04.106Z,84.42
2022-07-30T09:30:46.167Z,84.33
2022-07-30T09:33:15.876Z,84.15
2022-07-30T09:35:45.782Z,82.43
2022-07-30T09:38:14.246Z,82.74
2022-07-30T09:40:57.212Z,80.63
2022-07-30T09:43:27.993Z,82.32
2022-07-30T09:46:00.473Z,80.31
2022-07-30T09:48:29.837Z,80.72
2022-07-30T09:50:58.205Z,82.93
2022-07-30T09:53:28.414Z,80.44
2022-07-30T09:55:58.546Z,78.60
2022-07-30T09:58:28.010Z,75.07
2022-07-30T10:00:58.375Z,73.44
2022-07-30T10:03:38.476Z,75.26
2022-07-30T10:06:11.209Z,77.04
2022-07-30T10:08:41.687Z,77.21
2022-07-30T10:11:12.217Z,78.09
2022-07-30T10:13:45.370Z,77.63
2022-07-30T10:16:14.367Z,78.38
2022-07-30T10:18:48.055Z,76.22
2022-07-30T10:21:16.986Z,73.46
2022-07-30T10:23:45.850Z,72.75
2022-07-30T10:26:20.085Z,71.53
2022-07-30T10:28:49.266Z,71.06
2022-07-30T10:31:47.352Z,71.91
2022-07-30T10:34:08.286Z,72.83
2022-07-30T10:36:42.151Z,68.45
2022-07-30T10:39:12.224Z,69.01
2022-07-30T10:41:54.232Z,68.39
2022-07-30T10:45:23.888Z,70.00
2022-07-30T10:47:53.060Z,68.55
2022-07-30T10:50:27.142Z,68.01
2022-07-30T10:52:57.065Z,67.20
2022-07-30T10:55:38.794Z,67.26
2022-07-30T10:58:09.956Z,64.87
2022-07-30T11:01:01.121Z,65.21
2022-07-30T11:03:40.037Z,67.04
2022-07-30T11:06:29.628Z,65.67
2022-07-30T11:08:58.502Z,64.91
2022-07-30T11:12:02.254Z,64.61
2022-07-30T11:15:06.856Z,63.52
2022-07-30T11:18:11.408Z,64.25
2022-07-30T11:20:40.661Z,60.46
2022-07-30T11:23:37.014Z,61.56
2022-07-30T11:26:07.264Z,59.74
2022-07-30T11:28:40.783Z,60.16
2022-07-30T11:32:07.463Z,60.56
2022-07-30T11:34:29.860Z,58.62
2022-07-30T11:37:18.703Z,58.22
2022-07-30T11:40:12.521Z,58.86
2022-07-30T11:42:42.139Z,59.06
2022-07-30T11:45:29.885Z,56.48
2022-07-30T11:48:01.477Z,56.25
2022-07-30T11:50:32.033Z,54.91
2022-07-30T11:53:01.353Z,55.04
2022-07-30T11:55:33.743Z,56.36
2022-07-30T11:58:04.194Z,56.82
2022-07-30T12:00:37.858Z,56.95
2022-07-30T12:03:11.703Z,57.54
2022-07-30T12:05:39.996Z,55.44
2022-07-30T12:08:08.160Z,56.95
2022-07-30T12:10:44.069Z,56.27
2022-07-30T12:13:14.215Z,55.56
2022-07-30T12:15:44.471Z,56.02
2022-07-30T12:18:26.390Z,54.74
2022-07-30T12:20:59.709Z,55.59
2022-07-30T12:24:28.729Z,56.30
2022-07-30T12:27:06.899Z,55.36
2022-07-30T12:29:36.192Z,53.04
2022-07-30T12:32:04.331Z,51.71
2022-07-30T12:34:33.692Z,51.46
2022-07-30T12:37:09.077Z,52.18
2022-07-30T12:39:37.651Z,51.56
2022-07-30T12:42:07.579Z,50.96
2022-07-30T12:44:39.120Z,49.90
2022-07-30T12:47:08.150Z,48.35
2022-07-30T12:49:37.569Z,49.30
2022-07-30T12:52:13.530Z,48.73
2022-07-30T12:55:03.388Z,47.65
2022-07-30T12:57:58.421Z,45.11
2022-07-30T13:00:28.569Z,44.12
2022-07-30T13:02:56.610Z,42.94
2022-07-30T13:05:48.598Z,44.76
2022-07-30T13:08:17.339Z,44.10
2022-07-30T13:10:59.887Z,44.03
2022-07-30T13:13:29.547Z,43.12
2022-07-30T13:16:01.835Z,41.30
2022-07-30T13:18:30.373Z,40.55
2022-07-30T13:20:58.309Z,38.70
2022-07-30T13:23:27.680Z,39.32
2022-07-30T13:25:55.641Z,40.28
2022-07-30T13:28:23.680Z,40.10
2022-07-30T13:30:53.089Z,39.66
2022-07-30T13:33:21.493Z,38.89
2022-07-30T13:35:50.153Z,39.16
2022-07-30T13:38:18.084Z,38.90
2022-07-30T13:40:46.015Z,37.69
2022-07-30T13:43:13.949Z,34.68
2022-07-30T13:45:42.373Z,34.47
2022-07-30T13:48:11.704Z,37.77
2022-07-30T13:50:41.597Z,39.49
2022-07-30T13:53:10.100Z,39.05
2022-07-30T13:55:38.738Z,38.98
2022-07-30T13:58:08.628Z,39.56
2022-07-30T14:00:37.378Z,38.13
2022-07-30T14:03:09.305Z,37.37
2022-07-30T14:05:42.111Z,36.34
2022-07-30T14:08:12.138Z,37.73
2022-07-30T14:10:41.205Z,36.15
2022-07-30T14:13:16.066Z,36.16
2022-07-30T14:15:49.919Z,38.29
2022-07-30T14:18:17.755Z,39.61
2022-07-30T14:20:49.334Z,40.34
2022-07-30T14:23:17.382Z,37.99
2022-07-30T14:25:47.258Z,39.44
2022-07-30T14:28:16.376Z,38.50
2022-07-30T14:30:45.067Z,36.53
2022-07-30T14:33:13.075Z,38.11
2022-07-30T14:47:14.899Z,37.92
2022-07-30T14:49:43.813Z,36.94
2022-07-30T14:52:13.660Z,37.86
2022-07-30T14:54:41.665Z,37.18
2022-07-30T14:57:10.651Z,36.40
2022-07-30T14:59:39.267Z,35.77
2022-07-30T15:02:10.666Z,37.08
2022-07-30T15:04:41.219Z,39.64
2022-07-30T15:10:50.149Z,37.53
2022-07-30T15:13:18.068Z,37.00
2022-07-30T15:15:47.334Z,35.70
2022-07-30T15:18:15.425Z,33.88
2022-07-30T15:20:44.940Z,34.42
2022-07-30T15:23:14.384Z,35.79
2022-07-30T15:25:43.676Z,35.53
2022-07-30T15:28:12.012Z,33.10
2022-07-30T15:30:39.980Z,32.37
2022-07-30T15:33:09.209Z,34.54
2022-07-30T15:35:38.258Z,36.70
2022-07-30T15:38:11.358Z,35.20
2022-07-30T15:40:40.206Z,33.06
2022-07-30T15:43:08.578Z,33.75
2022-07-30T15:45:55.772Z,32.80
2022-07-30T15:48:26.958Z,33.39
2022-07-30T15:51:01.727Z,33.46
2022-07-30T15:53:32.432Z,32.48
2022-07-30T15:56:00.698Z,35.38
2022-07-30T15:58:28.838Z,34.16
2022-07-30T16:00:56.776Z,32.90
2022-07-30T16:03:25.449Z,34.90
2022-07-30T16:05:54.965Z,33.84
2022-07-30T16:08:23.840Z,34.45
2022-07-30T16:10:53.165Z,33.49
2022-07-30T16:13:21.636Z,33.15
2022-07-30T16:15:49.985Z,33.89
2022-07-30T16:18:17.793Z,34.18
2022-07-30T16:21:47.091Z,34.04
2022-07-30T16:24:15.008Z,35.07
2022-07-30T16:26:47.654Z,35.33
2022-07-30T16:29:16.025Z,35.90
2022-07-30T16:31:44.880Z,36.01
2022-07-30T16:34:12.755Z,35.27
2022-07-30T16:36:40.600Z,36.55
2022-07-30T16:39:09.461Z,37.90
2022-07-30T16:41:48.333Z,36.88
2022-07-30T16:44:16.831Z,34.40
2022-07-30T16:46:46.426Z,35.70
2022-07-30T16:49:14.680Z,36.78
2022-07-30T16:51:42.957Z,36.31
2022-07-30T16:54:11.862Z,36.43
2022-07-30T16:56:40.116Z,36.25
2022-07-30T16:59:13.916Z,35.44
2022-07-30T17:01:42.323Z,37.67
2022-07-30T17:04:10.466Z,37.31
2022-07-30T17:06:39.941Z,36.82
2022-07-30T17:09:09.530Z,38.06
2022-07-30T17:11:46.721Z,38.79
2022-07-30T17:14:22.319Z,40.31
2022-07-30T17:16:50.734Z,40.64
2022-07-30T17:19:19.533Z,42.02
2022-07-30T17:21:47.504Z,42.54
2022-07-30T17:24:17.258Z,44.25
2022-07-30T17:26:46.869Z,44.09
2022-07-30T17:29:16.318Z,43.30
2022-07-30T17:31:48.635Z,42.58
2022-07-30T17:34:20.153Z,43.74
2022-07-30T17:36:52.277Z,43.43
2022-07-30T17:40:23.885Z,44.42
2022-07-30T17:42:12.360Z,44.49
2022-07-30T17:44:41.088Z,45.76
2022-07-30T17:47:15.154Z,44.46
2022-07-30T17:49:44.826Z,44.55
2022-07-30T17:52:12.893Z,45.80
2022-07-30T17:54:40.920Z,44.91
2022-07-30T17:57:09.207Z,45.92
2022-07-30T17:59:37.265Z,46.48
2022-07-30T18:02:06.475Z,47.30
2022-07-30T18:04:35.961Z,46.30
2022-07-30T18:07:04.116Z,48.07
2022-07-30T18:09:38.881Z,47.19
2022-07-30T18:12:09.902Z,47.75
2022-07-30T18:14:37.872Z,47.47
2022-07-30T18:17:09.081Z,48.58
2022-07-30T18:19:42.128Z,48.89
2022-07-30T18:22:14.759Z,48.48
2022-07-30T18:24:44.893Z,49.30
2022-07-30T18:27:13.489Z,50.13
2022-07-30T18:29:41.690Z,50.21
2022-07-30T18:32:11.347Z,51.38
2022-07-30T18:34:39.049Z,51.68
2022-07-30T18:37:08.810Z,51.27
2022-07-30T18:39:36.879Z,51.75
2022-07-30T18:42:05.411Z,52.50
2022-07-30T18:44:33.350Z,52.98
2022-07-30T18:47:01.240Z,54.01
2022-07-30T18:49:38.065Z,53.88
2022-07-30T18:52:10.377Z,54.64
2022-07-30T18:54:39.126Z,54.30
2022-07-30T18:57:11.292Z,55.32
2022-07-30T18:59:43.059Z,55.38
2022-07-30T19:02:11.026Z,56.33
2022-07-30T19:04:39.869Z,56.15
2022-07-30T19:07:09.331Z,56.56
2022-07-30T19:09:37.663Z,57.32
2022-07-30T19:12:06.263Z,56.85
2022-07-30T19:14:35.595Z,57.50
2022-07-30T19:17:13.730Z,58.74
2022-07-30T19:19:43.893Z,59.58
2022-07-30T19:22:13.065Z,60.64
2022-07-30T19:24:41.887Z,60.42
2022-07-30T19:27:14.121Z,62.43
2022-07-30T19:29:43.578Z,63.48
2022-07-30T19:32:12.513Z,61.56
2022-07-30T19:34:43.338Z,60.98
2022-07-30T19:37:11.492Z,62.04
2022-07-30T19:42:31.409Z,62.03
2022-07-30T19:45:04.266Z,61.57
2022-07-30T19:47:39.213Z,64.53
2022-07-30T19:50:08.745Z,63.96
2022-07-30T19:52:38.962Z,64.05
2022-07-30T19:55:18.394Z,65.37
2022-07-30T19:57:58.783Z,66.53
2022-07-30T20:00:32.090Z,65.28
2022-07-30T20:03:03.855Z,65.78
2022-07-30T20:05:33.249Z,66.25
2022-07-30T20:08:24.794Z,67.21
2022-07-30T20:10:59.133Z,67.09
2022-07-30T20:13:45.386Z,67.57
2022-07-30T20:16:14.674Z,68.37
2022-07-30T20:18:45.856Z,68.48
2022-07-30T20:21:16.836Z,70.56
2022-07-30T20:23:45.536Z,71.94
2022-07-30T20:26:16.121Z,71.11
2022-07-30T20:28:52.365Z,70.83
2022-07-30T20:31:22.544Z,69.55
2022-07-30T20:33:50.927Z,71.55
2022-07-30T20:36:19.322Z,70.81
2022-07-30T20:38:48.157Z,70.53
2022-07-30T20:41:17.658Z,70.99
2022-07-30T20:43:52.243Z,70.50
2022-07-30T20:46:36.712Z,70.73
2022-07-30T20:50:09.902Z,71.77
2022-07-30T20:52:40.155Z,71.64
2022-07-30T20:55:09.661Z,71.32
2022-07-30T20:57:56.907Z,75.02
2022-07-30T21:00:29.224Z,71.39
2022-07-30T21:02:57.723Z,71.58
2022-07-30T21:05:31.284Z,72.12
2022-07-30T21:07:59.391Z,73.92
2022-07-30T21:10:28.958Z,72.74
2022-07-30T21:13:02.847Z,72.46
2022-07-30T21:15:33.039Z,71.62
2022-07-30T21:18:01.681Z,72.77
2022-07-30T21:20:30.011Z,72.01
2022-07-30T21:22:58.853Z,73.51
2022-07-30T21:25:33.178Z,77.73
2022-07-30T21:28:06.550Z,74.05
2022-07-30T21:30:35.863Z,73.85
2022-07-30T21:33:03.696Z,74.12
2022-07-30T21:35:32.654Z,77.25
2022-07-30T21:38:01.424Z,80.58
2022-07-30T21:40:30.120Z,82.31
2022-07-30T21:42:59.274Z,79.55
2022-07-30T21:45:37.969Z,82.25
2022-07-30T21:48:09.313Z,86.94
2022-07-30T21:50:41.953Z,82.23
2022-07-30T21:53:12.978Z,84.30
2022-07-30T21:59:22.053Z,82.03
2022-07-30T22:01:55.193Z,81.44
2022-07-30T22:04:23.143Z,78.30
2022-07-30T22:06:54.502Z,86.61
2022-07-30T22:09:33.460Z,86.71
2022-07-30T22:12:09.141Z,85.94
2022-07-30T22:14:39.769Z,89.43
2022-07-30T22:17:22.475Z,89.41
2022-07-30T22:19:54.658Z,87.44
2022-07-30T22:22:27.450Z,83.22
2022-07-30T22:24:58.217Z,88.50
2022-07-30T22:27:39.877Z,89.08
2022-07-30T22:30:10.136Z,87.04
2022-07-30T22:32:42.919Z,85.85
2022-07-30T22:35:11.374Z,87.33
2022-07-30T22:37:40.071Z,85.98
2022-07-30T22:41:09.340Z,85.65
2022-07-30T22:43:42.663Z,89.87
2022-07-30T22:46:30.628Z,89.51
2022-07-30T22:49:01.390Z,87.99
2022-07-30T22:52:16.919Z,94.41
2022-07-30T22:54:19.446Z,94.32
2022-07-30T22:56:51.394Z,93.46
2022-07-30T22:59:19.350Z,91.89
2022-07-30T23:02:07.227Z,92.24
2022-07-30T23:04:41.976Z,92.66
2022-07-30T23:08:14.761Z,93.97
2022-07-30T23:10:59.868Z,89.29
2022-07-30T23:12:14.799Z,61.16
2022-07-30T23:13:28.802Z,92.23
2022-07-30T23:16:01.722Z,89.54
2022-07-30T23:18:29.554Z,90.21
2022-07-30T23:21:01.500Z,94.00
2022-07-30T23:23:30.687Z,96.76
2022-07-30T23:26:01.957Z,95.13
2022-07-30T23:28:30.056Z,95.18
2022-07-30T23:30:58.219Z,92.43
2022-07-30T23:33:25.982Z,90.24
2022-07-30T23:35:54.478Z,90.03
2022-07-30T23:38:27.136Z,88.02
2022-07-30T23:41:59.081Z,93.45
2022-07-30T23:44:27.561Z,92.90
2022-07-30T23:46:56.173Z,94.30
2022-07-30T23:49:24.555Z,95.48
2022-07-30T23:51:52.738Z,94.68
2022-07-30T23:54:22.327Z,95.75
2022-07-30T23:56:55.411Z,97.60
2022-07-30T23:59:23.974Z,95.61
